createdAt,value
2022-12-03T00:01:30.523Z,96298.91
2022-12-03T00:03:58.979Z,96301.78
2022-12-03T00:06:32.909Z,96299.41
2022-12-03T00:09:03.073Z,96303.00
2022-12-03T00:11:32.270Z,96301.34
2022-12-03T00:14:00.654Z,96303.00
2022-12-03T00:16:30.481Z,96302.16
2022-12-03T00:18:58.899Z,96303.00
2022-12-03T00:21:27.293Z,96297.78
2022-12-03T00:23:55.620Z,96298.00
2022-12-03T00:26:24.036Z,96302.53
2022-12-03T00:28:52.499Z,96303.50
2022-12-03T00:31:23.293Z,96297.44
2022-12-03T00:33:53.553Z,96306.25
2022-12-03T00:36:21.931Z,96307.88
2022-12-03T00:38:50.327Z,96309.81
2022-12-03T00:41:18.702Z,96301.38
2022-12-03T00:43:46.964Z,96303.44
2022-12-03T00:46:19.855Z,96313.88
2022-12-03T00:48:49.855Z,96309.47
2022-12-03T00:51:19.636Z,96305.91
2022-12-03T00:53:47.987Z,96305.91
2022-12-03T00:56:16.427Z,96308.50
2022-12-03T00:58:44.789Z,96302.47
2022-12-03T01:01:13.354Z,96310.31
2022-12-03T01:03:42.107Z,96311.28
2022-12-03T01:06:10.525Z,96306.16
2022-12-03T01:08:40.985Z,96302.84
2022-12-03T01:11:29.590Z,96299.97
2022-12-03T01:13:58.127Z,96305.06
2022-12-03T01:16:26.543Z,96298.19
2022-12-03T01:18:55.087Z,96304.50
2022-12-03T01:21:23.648Z,96303.66
2022-12-03T01:23:53.499Z,96298.31
2022-12-03T01:26:21.911Z,96299.97
2022-12-03T01:28:50.651Z,96297.47
2022-12-03T01:31:36.590Z,96295.81
2022-12-03T01:34:05.555Z,96289.06
2022-12-03T01:36:35.200Z,96296.75
2022-12-03T01:39:06.305Z,96297.03
2022-12-03T01:41:36.791Z,96295.34
2022-12-03T01:44:16.109Z,96295.13
2022-12-03T01:46:45.045Z,96291.69
2022-12-03T01:49:18.188Z,96291.81
2022-12-03T01:51:47.094Z,96295.34
2022-12-03T01:54:19.718Z,96291.91
2022-12-03T01:56:48.836Z,96291.09
2022-12-03T01:59:19.144Z,96296.31
2022-12-03T02:01:47.778Z,96294.66
2022-12-03T02:04:18.266Z,96289.69
2022-12-03T02:06:47.140Z,96292.16
2022-12-03T02:09:16.874Z,96288.47
2022-12-03T02:11:48.131Z,96292.75
2022-12-03T02:14:20.331Z,96294.28
2022-12-03T02:16:49.180Z,96292.38
2022-12-03T02:19:25.372Z,96285.25
2022-12-03T02:22:03.360Z,96290.47
2022-12-03T02:24:42.021Z,96282.50
2022-12-03T02:27:11.780Z,96286.19
2022-12-03T02:29:40.352Z,96281.94
2022-12-03T02:32:08.860Z,96281.06
2022-12-03T02:34:39.660Z,96291.53
2022-12-03T02:37:12.944Z,96289.88
2022-12-03T02:39:44.817Z,96292.50
2022-12-03T02:42:32.570Z,96294.16
2022-12-03T02:45:05.587Z,96294.84
2022-12-03T02:47:36.704Z,96293.09
2022-12-03T02:50:06.427Z,96285.94
2022-12-03T02:52:34.888Z,96286.88
2022-12-03T02:55:04.948Z,96288.56
2022-12-03T02:57:35.988Z,96279.44
2022-12-03T03:00:05.959Z,96283.94
2022-12-03T03:02:36.565Z,96286.44
2022-12-03T03:05:07.899Z,96282.75
2022-12-03T03:07:37.021Z,96285.25
2022-12-03T03:10:08.186Z,96281.66
2022-12-03T03:12:39.533Z,96283.34
2022-12-03T03:15:18.287Z,96286.78
2022-12-03T03:17:46.738Z,96290.22
2022-12-03T03:20:15.694Z,96289.28
2022-12-03T03:22:44.895Z,96289.97
2022-12-03T03:25:16.706Z,96289.16
2022-12-03T03:27:47.168Z,96284.75
2022-12-03T03:30:16.787Z,96282.00
2022-12-03T03:32:45.284Z,96287.94
2022-12-03T03:35:14.777Z,96293.16
2022-12-03T03:37:46.191Z,96292.34
2022-12-03T03:40:14.624Z,96288.88
2022-12-03T03:42:43.356Z,96287.94
2022-12-03T03:45:13.732Z,96280.91
2022-12-03T03:47:43.508Z,96280.91
2022-12-03T03:50:14.986Z,96286.16
2022-12-03T03:52:44.821Z,96287.94
2022-12-03T03:55:14.162Z,96285.19
2022-12-03T03:57:42.546Z,96279.81
2022-12-03T04:00:13.550Z,96281.50
2022-12-03T04:02:42.007Z,96288.53
2022-12-03T04:05:16.422Z,96280.53
2022-12-03T04:07:44.861Z,96277.09
2022-12-03T04:10:32.171Z,96281.38
2022-12-03T04:13:01.146Z,96281.22
2022-12-03T04:15:30.999Z,96275.19
2022-12-03T04:18:16.939Z,96264.72
2022-12-03T04:20:47.488Z,96266.38
2022-12-03T04:23:14.793Z,96270.78
2022-12-03T04:26:00.572Z,96264.72
2022-12-03T04:28:46.473Z,96260.47
2022-12-03T04:31:33.818Z,96266.63
2022-12-03T04:34:19.795Z,96270.91
2022-12-03T04:36:48.662Z,96270.91
2022-12-03T04:39:16.970Z,96271.84
2022-12-03T04:41:45.446Z,96271.84
2022-12-03T04:44:31.658Z,96271.97
2022-12-03T04:47:01.576Z,96279.72
2022-12-03T04:49:29.881Z,96281.50
2022-12-03T04:51:58.599Z,96280.53
2022-12-03T04:54:27.494Z,96271.84
2022-12-03T04:56:57.114Z,96263.06
2022-12-03T04:59:25.483Z,96276.00
2022-12-03T05:01:54.127Z,96281.22
2022-12-03T05:04:24.195Z,96279.59
2022-12-03T05:06:52.793Z,96283.03
2022-12-03T05:09:21.242Z,96288.13
2022-12-03T05:11:49.566Z,96289.94
2022-12-03T05:14:18.127Z,96296.09
2022-12-03T05:16:46.514Z,96287.31
2022-12-03T05:19:14.866Z,96290.75
2022-12-03T05:21:43.679Z,96296.81
2022-12-03T05:24:12.048Z,96294.06
2022-12-03T05:26:40.423Z,96295.03
2022-12-03T05:29:08.880Z,96294.19
2022-12-03T05:31:37.191Z,96284.69
2022-12-03T05:34:05.975Z,96291.56
2022-12-03T05:36:34.499Z,96291.84
2022-12-03T05:39:04.232Z,96288.53
2022-12-03T05:41:50.118Z,96287.81
2022-12-03T05:44:20.727Z,96290.44
2022-12-03T05:46:49.242Z,96283.53
2022-12-03T05:49:17.835Z,96281.16
2022-12-03T05:51:46.223Z,96284.75
2022-12-03T05:54:16.035Z,96284.75
2022-12-03T05:56:44.367Z,96288.19
2022-12-03T05:59:12.734Z,96283.66
2022-12-03T06:01:41.055Z,96286.25
2022-12-03T06:04:09.427Z,96289.72
2022-12-03T06:06:37.816Z,96289.72
2022-12-03T06:09:06.860Z,96286.97
2022-12-03T06:11:37.259Z,96284.22
2022-12-03T06:14:05.943Z,96296.22
2022-12-03T06:16:34.379Z,96293.59
2022-12-03T06:19:02.779Z,96290.28
2022-12-03T06:21:31.149Z,96284.50
2022-12-03T06:24:00.002Z,96286.25
2022-12-03T06:26:30.051Z,96286.16
2022-12-03T06:28:59.907Z,96285.19
2022-12-03T06:31:28.268Z,96293.88
2022-12-03T06:33:56.663Z,96287.81
2022-12-03T06:36:26.155Z,96281.88
2022-12-03T06:38:54.510Z,96294.69
2022-12-03T06:41:22.880Z,96286.03
2022-12-03T06:43:51.284Z,96282.31
2022-12-03T06:46:21.097Z,96284.81
2022-12-03T06:48:49.554Z,96274.75
2022-12-03T06:51:17.918Z,96274.88
2022-12-03T06:53:46.180Z,96282.13
2022-12-03T06:56:15.483Z,96277.84
2022-12-03T06:58:46.279Z,96284.03
2022-12-03T07:01:14.891Z,96283.22
2022-12-03T07:03:44.529Z,96285.69
2022-12-03T07:06:12.975Z,96282.00
2022-12-03T07:08:41.561Z,96284.50
2022-12-03T07:11:30.079Z,96283.53
2022-12-03T07:14:04.719Z,96290.44
2022-12-03T07:16:34.401Z,96292.47
2022-12-03T07:19:04.689Z,96291.63
2022-12-03T07:21:33.517Z,96289.00
2022-12-03T07:24:02.322Z,96287.34
2022-12-03T07:26:30.708Z,96291.06
2022-12-03T07:28:59.394Z,96283.34
2022-12-03T07:31:27.908Z,96293.78
2022-12-03T07:33:56.391Z,96292.22
2022-12-03T07:36:26.334Z,96294.84
2022-12-03T07:38:54.707Z,96294.72
2022-12-03T07:41:23.135Z,96297.47
2022-12-03T07:43:51.719Z,96288.81
2022-12-03T07:46:20.252Z,96290.47
2022-12-03T07:48:48.619Z,96290.47
2022-12-03T07:51:16.933Z,96282.50
2022-12-03T07:53:46.639Z,96283.06
2022-12-03T07:56:14.983Z,96280.22
2022-12-03T07:58:43.316Z,96272.38
2022-12-03T08:01:11.722Z,96281.31
2022-12-03T08:03:40.140Z,96285.31
2022-12-03T08:06:08.799Z,96296.50
2022-12-03T08:08:37.162Z,96288.53
2022-12-03T08:11:07.251Z,96290.28
2022-12-03T08:13:36.107Z,96287.81
2022-12-03T08:16:16.877Z,96292.78
2022-12-03T08:18:46.554Z,96289.94
2022-12-03T08:21:17.065Z,96293.38
2022-12-03T08:23:45.876Z,96289.94
2022-12-03T08:26:23.383Z,96284.81
2022-12-03T08:28:52.035Z,96280.41
2022-12-03T08:31:27.989Z,96287.19
2022-12-03T08:34:07.689Z,96279.34
2022-12-03T08:36:36.535Z,96280.03
2022-12-03T08:39:29.217Z,96286.81
2022-12-03T08:42:27.671Z,96285.00
2022-12-03T08:44:56.510Z,96274.44
2022-12-03T08:47:25.812Z,96277.03
2022-12-03T08:49:58.084Z,96285.59
2022-12-03T08:52:32.572Z,96275.00
2022-12-03T08:55:03.887Z,96270.59
2022-12-03T08:57:35.881Z,96284.66
2022-12-03T09:00:19.591Z,96282.84
2022-12-03T09:02:52.310Z,96275.72
2022-12-03T09:05:23.335Z,96272.13
2022-12-03T09:07:51.786Z,96283.28
2022-12-03T09:10:20.292Z,96277.13
2022-12-03T09:12:50.411Z,96283.88
2022-12-03T09:15:18.893Z,96280.31
2022-12-03T09:17:47.236Z,96275.06
2022-12-03T09:20:16.158Z,96281.25
2022-12-03T09:22:44.908Z,96273.56
2022-12-03T09:25:13.271Z,96271.75
2022-12-03T09:27:42.563Z,96278.50
2022-12-03T09:30:13.126Z,96266.25
2022-12-03T09:32:43.570Z,96274.09
2022-12-03T09:35:12.461Z,96268.63
2022-12-03T09:37:40.965Z,96266.31
2022-12-03T09:40:10.973Z,96259.03
2022-12-03T09:42:39.750Z,96262.25
2022-12-03T09:45:12.349Z,96263.63
2022-12-03T09:47:45.868Z,96265.03
2022-12-03T09:50:15.734Z,96251.56
2022-12-03T09:52:45.165Z,96254.59
2022-12-03T09:55:18.963Z,96252.56
2022-12-03T09:57:47.476Z,96249.69
2022-12-03T10:00:18.816Z,96248.88
2022-12-03T10:02:49.768Z,96251.91
2022-12-03T10:05:20.456Z,96241.19
2022-12-03T10:07:49.659Z,96241.75
2022-12-03T10:10:21.248Z,96235.41
2022-12-03T10:12:50.070Z,96229.09
2022-12-03T10:15:22.942Z,96226.22
2022-12-03T10:17:55.222Z,96225.09
2022-12-03T10:20:25.726Z,96217.25
2022-12-03T10:22:54.077Z,96213.69
2022-12-03T10:25:24.017Z,96217.00
2022-12-03T10:28:00.453Z,96205.41
2022-12-03T10:30:29.750Z,96203.50
2022-12-03T10:33:02.645Z,96206.94
2022-12-03T10:35:39.775Z,96206.81
2022-12-03T10:38:19.547Z,96191.66
2022-12-03T10:40:48.544Z,96200.22
2022-12-03T10:43:22.725Z,96188.09
2022-12-03T10:45:52.390Z,96193.31
2022-12-03T10:48:25.562Z,96195.94
2022-12-03T10:50:55.478Z,96190.84
2022-12-03T10:53:27.375Z,96182.84
2022-12-03T10:55:59.595Z,96188.63
2022-12-03T10:58:30.142Z,96191.13
2022-12-03T11:01:00.299Z,96187.81
2022-12-03T11:03:34.766Z,96183.38
2022-12-03T11:06:04.087Z,96178.00
2022-12-03T11:08:35.611Z,96189.19
2022-12-03T11:11:07.457Z,96185.88
2022-12-03T11:13:52.424Z,96185.06
2022-12-03T11:17:11.962Z,96173.31
2022-12-03T11:19:47.866Z,96174.31
2022-12-03T11:22:27.264Z,96172.63
2022-12-03T11:25:32.916Z,96167.50
2022-12-03T11:28:46.955Z,96157.47
2022-12-03T11:31:38.131Z,96161.44
2022-12-03T11:34:49.280Z,96159.75
2022-12-03T11:37:26.503Z,96168.03
2022-12-03T11:40:26.641Z,96161.41
2022-12-03T11:42:55.325Z,96164.28
2022-12-03T11:45:35.833Z,96163.22
2022-12-03T11:48:14.030Z,96158.66
2022-12-03T11:50:44.353Z,96161.97
2022-12-03T11:53:22.760Z,96168.84
2022-12-03T11:56:06.081Z,96156.31
2022-12-03T11:58:35.300Z,96152.47
2022-12-03T12:01:05.802Z,96145.47
2022-12-03T12:03:36.576Z,96139.38
2022-12-03T12:06:07.600Z,96144.47
2022-12-03T12:08:40.254Z,96136.63
2022-12-03T12:11:18.917Z,96137.75
2022-12-03T12:13:51.908Z,96134.13
2022-12-03T12:16:53.772Z,96138.69
2022-12-03T12:19:32.854Z,96138.56
2022-12-03T12:22:21.474Z,96134.13
2022-12-03T12:24:52.622Z,96127.38
2022-12-03T12:27:22.722Z,96123.94
2022-12-03T12:29:55.763Z,96130.00
2022-12-03T12:32:27.700Z,96130.13
2022-12-03T12:35:00.445Z,96128.50
2022-12-03T12:37:35.214Z,96119.09
2022-12-03T12:40:12.737Z,96129.31
2022-12-03T12:42:49.480Z,96124.78
2022-12-03T12:45:20.309Z,96126.56
2022-12-03T12:47:51.280Z,96130.41
2022-12-03T12:50:20.647Z,96125.31
2022-12-03T12:52:52.442Z,96124.50
2022-12-03T12:55:24.127Z,96116.91
2022-12-03T12:57:52.868Z,96117.84
2022-12-03T13:00:23.772Z,96122.25
2022-12-03T13:02:55.725Z,96118.94
2022-12-03T13:05:27.818Z,96110.41
2022-12-03T13:08:10.093Z,96114.81
2022-12-03T13:10:46.619Z,96112.19
2022-12-03T13:13:24.969Z,96109.72
2022-12-03T13:16:02.101Z,96106.13
2022-12-03T13:18:48.003Z,96095.66
2022-12-03T13:21:33.282Z,96091.25
2022-12-03T13:24:02.284Z,96097.31
2022-12-03T13:26:39.714Z,96101.72
2022-12-03T13:29:14.512Z,96103.38
2022-12-03T13:31:49.881Z,96092.78
2022-12-03T13:34:23.107Z,96079.69
2022-12-03T13:36:57.638Z,96087.41
2022-12-03T13:39:30.722Z,96082.03
2022-12-03T13:42:31.673Z,96076.63
2022-12-03T13:45:02.397Z,96076.63
2022-12-03T13:47:30.800Z,96086.28
2022-12-03T13:50:03.667Z,96085.47
2022-12-03T13:52:36.511Z,96083.97
2022-12-03T13:55:07.763Z,96076.94
2022-12-03T13:57:37.888Z,96076.94
2022-12-03T14:00:07.875Z,96078.84
2022-12-03T14:02:36.833Z,96080.91
2022-12-03T14:05:09.110Z,96074.16
2022-12-03T14:07:38.386Z,96078.28
2022-12-03T14:10:08.627Z,96076.63
2022-12-03T14:12:39.865Z,96076.63
2022-12-03T14:15:10.727Z,96075.13
2022-12-03T14:17:39.187Z,96076.22
2022-12-03T14:20:09.111Z,96079.91
2022-12-03T14:22:38.149Z,96078.28
2022-12-03T14:25:07.923Z,96076.59
2022-12-03T14:27:39.425Z,96075.22
2022-12-03T14:30:09.023Z,96077.16
2022-12-03T14:32:37.581Z,96079.63
2022-12-03T14:35:09.869Z,96079.63
2022-12-03T14:37:38.891Z,96082.50
2022-12-03T14:40:09.161Z,96074.66
2022-12-03T14:42:39.234Z,96072.31
2022-12-03T14:45:08.599Z,96076.19
2022-12-03T14:47:36.995Z,96077.94
2022-12-03T14:50:06.264Z,96078.34
2022-12-03T14:52:34.628Z,96071.59
2022-12-03T14:55:03.144Z,96076.84
2022-12-03T14:57:31.539Z,96079.47
2022-12-03T15:00:01.500Z,96085.63
2022-12-03T15:02:30.334Z,96077.78
2022-12-03T15:04:58.855Z,96081.50
2022-12-03T15:07:27.167Z,96089.78
2022-12-03T15:09:55.753Z,96091.66
2022-12-03T15:12:24.344Z,96082.16
2022-12-03T15:14:52.969Z,96079.56
2022-12-03T15:17:30.882Z,96069.91
2022-12-03T15:19:59.993Z,96069.09
2022-12-03T15:22:28.316Z,96077.06
2022-12-03T15:24:56.822Z,96069.22
2022-12-03T15:27:25.172Z,96067.56
2022-12-03T15:29:53.686Z,96063.53
2022-12-03T15:32:23.520Z,96069.06
2022-12-03T15:34:52.110Z,96063.13
2022-12-03T15:37:20.388Z,96068.50
2022-12-03T15:39:49.147Z,96070.41
2022-12-03T15:42:17.585Z,96075.75
2022-12-03T15:44:45.864Z,96074.13
2022-12-03T15:47:14.320Z,96071.63
2022-12-03T15:49:44.060Z,96075.06
2022-12-03T15:52:12.342Z,96072.56
2022-12-03T15:54:40.751Z,96071.75
2022-12-03T15:57:09.137Z,96067.63
2022-12-03T15:59:37.424Z,96070.50
2022-12-03T16:02:05.921Z,96059.34
2022-12-03T16:04:34.357Z,96070.91
2022-12-03T16:07:19.270Z,96065.66
2022-12-03T16:09:47.642Z,96063.75
2022-12-03T16:12:15.956Z,96062.78
2022-12-03T16:14:44.308Z,96055.91
2022-12-03T16:17:12.703Z,96055.47
2022-12-03T16:19:41.022Z,96055.47
2022-12-03T16:22:09.352Z,96058.06
2022-12-03T16:24:39.118Z,96054.50
2022-12-03T16:27:07.969Z,96055.59
2022-12-03T16:29:36.400Z,96051.31
2022-12-03T16:32:04.778Z,96053.25
2022-12-03T16:34:33.112Z,96054.19
2022-12-03T16:37:01.455Z,96057.78
2022-12-03T16:39:29.792Z,96055.16
2022-12-03T16:41:59.501Z,96055.16
2022-12-03T16:44:53.843Z,96055.97
2022-12-03T16:47:23.248Z,96058.59
2022-12-03T16:49:51.952Z,96058.47
2022-12-03T16:52:20.549Z,96052.28
2022-12-03T16:54:48.965Z,96055.72
2022-12-03T16:57:18.671Z,96046.09
2022-12-03T16:59:46.959Z,96038.13
2022-12-03T17:02:15.589Z,96036.47
2022-12-03T17:04:44.047Z,96030.41
2022-12-03T17:07:12.439Z,96030.53
2022-12-03T17:09:40.746Z,96026.28
2022-12-03T17:12:09.355Z,96027.91
2022-12-03T17:14:39.153Z,96037.56
2022-12-03T17:17:07.459Z,96041.00
2022-12-03T17:19:36.020Z,96026.97
2022-12-03T17:22:06.063Z,96033.72
2022-12-03T17:24:34.759Z,96042.38
2022-12-03T17:27:05.963Z,96040.59
2022-12-03T17:29:34.379Z,96045.81
2022-12-03T17:32:04.171Z,96039.78
2022-12-03T17:34:32.633Z,96032.63
2022-12-03T17:37:01.013Z,96033.47
2022-12-03T17:39:30.174Z,96039.53
2022-12-03T17:41:58.531Z,96034.16
2022-12-03T17:44:26.876Z,96032.50
2022-12-03T17:46:55.305Z,96030.69
2022-12-03T17:49:29.996Z,96025.34
2022-12-03T17:52:00.049Z,96028.94
2022-12-03T17:54:48.989Z,96014.19
2022-12-03T17:57:16.831Z,96019.41
2022-12-03T17:59:45.204Z,96021.09
2022-12-03T18:02:13.918Z,96012.25
2022-12-03T18:04:43.769Z,96010.75
2022-12-03T18:07:12.407Z,96008.13
2022-12-03T18:09:40.726Z,96017.78
2022-12-03T18:12:09.156Z,96007.31
2022-12-03T18:14:37.488Z,96008.97
2022-12-03T18:17:05.946Z,96009.22
2022-12-03T18:19:34.329Z,96013.63
2022-12-03T18:22:04.105Z,96005.78
2022-12-03T18:24:32.464Z,95998.63
2022-12-03T18:27:00.780Z,95996.97
2022-12-03T18:29:29.129Z,95999.72
2022-12-03T18:31:57.401Z,96008.66
2022-12-03T18:34:25.896Z,96009.50
2022-12-03T18:36:54.304Z,96001.66
2022-12-03T18:39:28.624Z,95997.25
2022-12-03T18:41:57.087Z,95995.44
2022-12-03T18:44:25.990Z,95997.94
2022-12-03T18:46:54.916Z,95996.28
2022-12-03T18:49:23.722Z,96001.38
2022-12-03T18:51:57.524Z,95990.91
2022-12-03T18:54:29.195Z,95990.78
2022-12-03T18:56:57.665Z,95989.00
2022-12-03T18:59:26.091Z,95994.25
2022-12-03T19:01:54.498Z,96001.25
2022-12-03T19:04:23.044Z,95993.53
2022-12-03T19:06:51.469Z,95996.84
2022-12-03T19:09:20.063Z,95991.06
2022-12-03T19:11:49.855Z,95995.44
2022-12-03T19:14:18.219Z,95997.13
2022-12-03T19:16:46.774Z,95997.94
2022-12-03T19:19:15.183Z,95995.19
2022-12-03T19:21:43.556Z,96001.38
2022-12-03T19:24:27.263Z,96002.09
2022-12-03T19:26:57.063Z,95998.63
2022-12-03T19:29:25.707Z,96005.53
2022-12-03T19:31:54.212Z,96007.03
2022-12-03T19:34:22.690Z,96003.47
2022-12-03T19:36:51.052Z,96006.09
2022-12-03T19:39:19.762Z,96007.84
2022-12-03T19:41:48.124Z,96009.66
2022-12-03T19:44:19.372Z,96008.13
2022-12-03T19:46:50.284Z,96015.28
2022-12-03T19:49:21.003Z,95999.59
2022-12-03T19:51:49.667Z,95996.13
2022-12-03T19:54:19.199Z,96007.44
2022-12-03T19:56:47.567Z,96009.94
2022-12-03T19:59:17.264Z,96004.84
2022-12-03T20:01:45.868Z,96003.97
2022-12-03T20:04:14.378Z,96016.94
2022-12-03T20:06:42.749Z,96011.56
2022-12-03T20:09:16.584Z,96012.41
2022-12-03T20:11:45.924Z,96013.09
2022-12-03T20:14:17.610Z,96007.84
2022-12-03T20:16:46.588Z,96003.59
2022-12-03T20:19:17.970Z,96003.31
2022-12-03T20:21:46.666Z,95992.03
2022-12-03T20:24:17.101Z,95991.09
2022-12-03T20:26:45.553Z,95983.38
2022-12-03T20:29:14.036Z,95979.94
2022-12-03T20:31:43.872Z,95973.84
2022-12-03T20:34:12.696Z,95981.72
2022-12-03T20:36:41.059Z,95977.44
2022-12-03T20:39:09.472Z,95986.94
2022-12-03T20:41:39.693Z,95981.72
2022-12-03T20:44:08.383Z,95963.28
2022-12-03T20:46:36.864Z,95971.00
2022-12-03T20:49:06.856Z,95972.78
2022-12-03T20:51:35.540Z,95965.06
2022-12-03T20:54:04.505Z,95967.00
2022-12-03T20:56:35.775Z,95968.78
2022-12-03T20:59:06.424Z,95967.81
2022-12-03T21:01:36.183Z,95966.19
2022-12-03T21:04:07.384Z,95973.03
2022-12-03T21:06:37.864Z,95974.72
2022-12-03T21:09:07.703Z,95970.44
2022-12-03T21:11:39.036Z,95966.31
2022-12-03T21:14:07.349Z,95967.81
2022-12-03T21:17:07.229Z,95966.03
2022-12-03T21:19:29.152Z,95958.03
2022-12-03T21:21:57.567Z,95954.63
2022-12-03T21:24:25.951Z,95954.75
2022-12-03T21:26:54.361Z,95957.22
2022-12-03T21:29:23.517Z,95965.06
2022-12-03T21:31:51.827Z,95959.16
2022-12-03T21:34:20.396Z,95965.06
2022-12-03T21:36:50.210Z,95967.69
2022-12-03T21:39:19.338Z,95964.09
2022-12-03T21:42:18.790Z,95956.25
2022-12-03T21:44:36.060Z,95959.72
2022-12-03T21:47:09.357Z,95948.28
2022-12-03T21:49:42.499Z,95951.59
2022-12-03T21:52:12.215Z,95960.28
2022-12-03T21:54:40.488Z,95959.44
2022-12-03T21:57:08.946Z,95958.59
2022-12-03T21:59:37.544Z,95955.88
2022-12-03T22:02:05.983Z,95951.47
2022-12-03T22:04:34.552Z,95947.03
2022-12-03T22:07:03.305Z,95945.41
2022-12-03T22:09:33.999Z,95942.09
2022-12-03T22:12:02.420Z,95940.44
2022-12-03T22:14:31.147Z,95940.72
2022-12-03T22:16:59.492Z,95932.03
2022-12-03T22:19:28.229Z,95939.03
2022-12-03T22:21:56.643Z,95934.78
2022-12-03T22:24:25.010Z,95942.47
2022-12-03T22:26:54.993Z,95927.63
2022-12-03T22:29:23.607Z,95925.28
2022-12-03T22:31:52.003Z,95929.69
2022-12-03T22:34:20.305Z,95927.09
2022-12-03T22:36:48.750Z,95918.94
2022-12-03T22:39:17.125Z,95918.13
2022-12-03T22:41:45.782Z,95910.41
2022-12-03T22:44:15.553Z,95906.16
2022-12-03T22:46:43.955Z,95907.41
2022-12-03T22:49:14.011Z,95910.13
2022-12-03T22:51:45.790Z,95893.88
2022-12-03T22:54:18.153Z,95894.00
2022-12-03T22:56:49.202Z,95903.53
2022-12-03T22:59:18.940Z,95908.75
2022-12-03T23:01:47.416Z,95904.34
2022-12-03T23:04:15.818Z,95906.00
2022-12-03T23:06:44.562Z,95904.34
2022-12-03T23:09:12.903Z,95899.94
2022-12-03T23:11:41.456Z,95906.00
2022-12-03T23:14:09.812Z,95886.75
2022-12-03T23:16:55.345Z,95890.16
2022-12-03T23:19:26.472Z,95890.16
2022-12-03T23:21:54.827Z,95885.91
2022-12-03T23:24:23.109Z,95885.91
2022-12-03T23:26:51.434Z,95878.75
2022-12-03T23:29:19.767Z,95863.91
2022-12-03T23:31:49.549Z,95851.81
2022-12-03T23:34:17.994Z,95859.66
2022-12-03T23:36:46.368Z,95856.06
2022-12-03T23:39:14.708Z,95848.22
2022-12-03T23:41:42.993Z,95853.31
2022-12-03T23:44:11.347Z,95855.94
2022-12-03T23:46:40.560Z,95855.22
2022-12-03T23:49:10.455Z,95857.84
2022-12-03T23:51:39.425Z,95841.34
2022-12-03T23:54:07.736Z,95854.25
2022-12-03T23:56:36.048Z,95855.94
2022-12-03T23:59:04.610Z,95853.31
